sensor_id;sensor_type;location;lat;lon;timestamp;P1;durP1;ratioP1;P2;durP2;ratioP2
19059;SDS011;9663;48.996;8.334;2023-06-14T00:01:44;5.57;;;2.67;;
19059;SDS011;9663;48.996;8.334;2023-06-14T00:04:13;5.20;;;2.60;;
19059;SDS011;9663;48.996;8.334;2023-06-14T00:06:41;5.85;;;2.60;;
19059;SDS011;9663;48.996;8.334;2023-06-14T00:09:10;5.18;;;2.35;;
19059;SDS011;9663;48.996;8.334;2023-06-14T00:11:39;4.60;;;2.42;;
19059;SDS011;9663;48.996;8.334;2023-06-14T00:14:06;4.82;;;2.47;;
19059;SDS011;9663;48.996;8.334;2023-06-14T00:16:32;4.75;;;2.50;;
19059;SDS011;9663;48.996;8.334;2023-06-14T00:19:00;4.40;;;2.30;;
19059;SDS011;9663;48.996;8.334;2023-06-14T00:21:28;5.45;;;2.40;;
19059;SDS011;9663;48.996;8.334;2023-06-14T00:23:55;5.75;;;2.70;;
19059;SDS011;9663;48.996;8.334;2023-06-14T00:26:22;4.72;;;2.25;;
19059;SDS011;9663;48.996;8.334;2023-06-14T00:28:48;4.68;;;2.20;;
19059;SDS011;9663;48.996;8.334;2023-06-14T00:31:14;4.63;;;2.53;;
19059;SDS011;9663;48.996;8.334;2023-06-14T00:33:40;4.90;;;2.90;;
19059;SDS011;9663;48.996;8.334;2023-06-14T00:36:05;4.57;;;2.45;;
19059;SDS011;9663;48.996;8.334;2023-06-14T00:38:31;4.60;;;2.25;;
19059;SDS011;9663;48.996;8.334;2023-06-14T00:40:57;4.60;;;2.35;;
19059;SDS011;9663;48.996;8.334;2023-06-14T00:43:22;5.40;;;2.63;;
19059;SDS011;9663;48.996;8.334;2023-06-14T00:45:48;4.57;;;2.30;;
19059;SDS011;9663;48.996;8.334;2023-06-14T00:48:14;4.68;;;2.58;;
19059;SDS011;9663;48.996;8.334;2023-06-14T00:50:40;4.88;;;2.08;;
19059;SDS011;9663;48.996;8.334;2023-06-14T00:53:06;4.72;;;2.28;;
19059;SDS011;9663;48.996;8.334;2023-06-14T00:55:32;4.47;;;2.10;;
19059;SDS011;9663;48.996;8.334;2023-06-14T00:57:58;3.80;;;1.75;;
19059;SDS011;9663;48.996;8.334;2023-06-14T01:00:25;4.05;;;1.90;;
19059;SDS011;9663;48.996;8.334;2023-06-14T01:02:50;4.80;;;2.20;;
19059;SDS011;9663;48.996;8.334;2023-06-14T01:05:16;4.45;;;1.98;;
19059;SDS011;9663;48.996;8.334;2023-06-14T01:07:59;4.05;;;1.77;;
19059;SDS011;9663;48.996;8.334;2023-06-14T01:11:02;3.97;;;1.83;;
19059;SDS011;9663;48.996;8.334;2023-06-14T01:13:35;3.85;;;1.67;;
19059;SDS011;9663;48.996;8.334;2023-06-14T01:16:07;3.92;;;1.95;;
19059;SDS011;9663;48.996;8.334;2023-06-14T01:18:34;3.42;;;1.52;;
19059;SDS011;9663;48.996;8.334;2023-06-14T01:21:01;4.45;;;2.03;;
19059;SDS011;9663;48.996;8.334;2023-06-14T01:23:30;3.97;;;1.67;;
19059;SDS011;9663;48.996;8.334;2023-06-14T01:25:58;4.22;;;1.77;;
19059;SDS011;9663;48.996;8.334;2023-06-14T01:28:25;4.47;;;1.80;;
19059;SDS011;9663;48.996;8.334;2023-06-14T01:30:57;3.55;;;1.67;;
19059;SDS011;9663;48.996;8.334;2023-06-14T01:33:29;3.35;;;1.35;;
19059;SDS011;9663;48.996;8.334;2023-06-14T01:35:58;3.95;;;1.70;;
19059;SDS011;9663;48.996;8.334;2023-06-14T01:38:27;4.20;;;1.60;;
19059;SDS011;9663;48.996;8.334;2023-06-14T01:40:55;3.83;;;1.73;;
19059;SDS011;9663;48.996;8.334;2023-06-14T01:43:24;3.72;;;1.65;;
19059;SDS011;9663;48.996;8.334;2023-06-14T01:45:52;4.32;;;1.85;;
19059;SDS011;9663;48.996;8.334;2023-06-14T01:48:19;4.32;;;1.70;;
19059;SDS011;9663;48.996;8.334;2023-06-14T01:50:46;3.25;;;1.70;;
19059;SDS011;9663;48.996;8.334;2023-06-14T01:53:14;4.15;;;1.77;;
19059;SDS011;9663;48.996;8.334;2023-06-14T01:55:40;4.28;;;1.70;;
19059;SDS011;9663;48.996;8.334;2023-06-14T01:58:08;3.75;;;1.65;;
19059;SDS011;9663;48.996;8.334;2023-06-14T02:00:38;3.63;;;1.70;;
19059;SDS011;9663;48.996;8.334;2023-06-14T02:03:04;4.10;;;1.95;;
19059;SDS011;9663;48.996;8.334;2023-06-14T02:05:29;4.18;;;1.85;;
19059;SDS011;9663;48.996;8.334;2023-06-14T02:07:55;4.82;;;2.00;;
19059;SDS011;9663;48.996;8.334;2023-06-14T02:10:21;4.10;;;1.70;;
19059;SDS011;9663;48.996;8.334;2023-06-14T02:12:47;4.20;;;1.90;;
19059;SDS011;9663;48.996;8.334;2023-06-14T02:15:13;3.78;;;1.88;;
19059;SDS011;9663;48.996;8.334;2023-06-14T02:17:42;3.45;;;1.80;;
19059;SDS011;9663;48.996;8.334;2023-06-14T02:20:08;3.78;;;1.60;;
19059;SDS011;9663;48.996;8.334;2023-06-14T02:22:35;3.70;;;1.63;;
19059;SDS011;9663;48.996;8.334;2023-06-14T02:25:01;3.95;;;1.70;;
19059;SDS011;9663;48.996;8.334;2023-06-14T02:27:26;4.45;;;2.10;;
19059;SDS011;9663;48.996;8.334;2023-06-14T02:29:52;3.70;;;1.80;;
19059;SDS011;9663;48.996;8.334;2023-06-14T02:32:18;3.90;;;1.80;;
19059;SDS011;9663;48.996;8.334;2023-06-14T02:34:43;5.35;;;1.58;;
19059;SDS011;9663;48.996;8.334;2023-06-14T02:37:09;4.22;;;1.85;;
19059;SDS011;9663;48.996;8.334;2023-06-14T02:39:36;4.20;;;1.90;;
19059;SDS011;9663;48.996;8.334;2023-06-14T02:42:01;3.75;;;1.75;;
19059;SDS011;9663;48.996;8.334;2023-06-14T02:44:27;3.80;;;1.80;;
19059;SDS011;9663;48.996;8.334;2023-06-14T02:46:54;4.40;;;1.95;;
19059;SDS011;9663;48.996;8.334;2023-06-14T02:49:21;3.95;;;1.65;;
19059;SDS011;9663;48.996;8.334;2023-06-14T02:51:47;3.35;;;1.45;;
19059;SDS011;9663;48.996;8.334;2023-06-14T02:54:13;3.63;;;1.65;;
19059;SDS011;9663;48.996;8.334;2023-06-14T02:56:39;4.45;;;2.08;;
19059;SDS011;9663;48.996;8.334;2023-06-14T02:59:05;3.92;;;1.73;;
19059;SDS011;9663;48.996;8.334;2023-06-14T03:01:32;3.90;;;1.67;;
19059;SDS011;9663;48.996;8.334;2023-06-14T03:04:06;3.85;;;1.50;;
19059;SDS011;9663;48.996;8.334;2023-06-14T03:06:35;4.65;;;1.80;;
19059;SDS011;9663;48.996;8.334;2023-06-14T03:09:01;4.03;;;1.98;;
19059;SDS011;9663;48.996;8.334;2023-06-14T03:11:32;3.92;;;1.95;;
19059;SDS011;9663;48.996;8.334;2023-06-14T03:13:57;4.07;;;1.98;;
19059;SDS011;9663;48.996;8.334;2023-06-14T03:16:24;4.47;;;1.83;;
19059;SDS011;9663;48.996;8.334;2023-06-14T03:18:50;4.18;;;1.70;;
19059;SDS011;9663;48.996;8.334;2023-06-14T03:21:17;3.90;;;1.60;;
19059;SDS011;9663;48.996;8.334;2023-06-14T03:23:47;3.70;;;1.67;;
19059;SDS011;9663;48.996;8.334;2023-06-14T03:26:14;4.18;;;1.73;;
19059;SDS011;9663;48.996;8.334;2023-06-14T03:28:43;4.10;;;1.75;;
19059;SDS011;9663;48.996;8.334;2023-06-14T03:31:10;4.03;;;1.95;;
19059;SDS011;9663;48.996;8.334;2023-06-14T03:33:37;4.20;;;1.88;;
19059;SDS011;9663;48.996;8.334;2023-06-14T03:36:04;3.85;;;1.80;;
19059;SDS011;9663;48.996;8.334;2023-06-14T03:38:30;3.85;;;1.95;;
19059;SDS011;9663;48.996;8.334;2023-06-14T03:40:56;3.70;;;1.90;;
19059;SDS011;9663;48.996;8.334;2023-06-14T03:43:22;5.75;;;1.85;;
19059;SDS011;9663;48.996;8.334;2023-06-14T03:45:47;4.32;;;1.95;;
19059;SDS011;9663;48.996;8.334;2023-06-14T03:48:13;3.88;;;1.80;;
19059;SDS011;9663;48.996;8.334;2023-06-14T03:50:39;3.65;;;1.80;;
19059;SDS011;9663;48.996;8.334;2023-06-14T03:53:05;4.38;;;2.35;;
19059;SDS011;9663;48.996;8.334;2023-06-14T03:55:31;4.25;;;1.77;;
19059;SDS011;9663;48.996;8.334;2023-06-14T03:57:58;4.05;;;2.05;;
19059;SDS011;9663;48.996;8.334;2023-06-14T04:00:24;3.50;;;1.70;;
19059;SDS011;9663;48.996;8.334;2023-06-14T04:02:50;3.83;;;1.80;;
19059;SDS011;9663;48.996;8.334;2023-06-14T04:05:16;4.47;;;2.17;;
19059;SDS011;9663;48.996;8.334;2023-06-14T04:07:44;4.10;;;1.90;;
19059;SDS011;9663;48.996;8.334;2023-06-14T04:10:12;3.67;;;1.85;;
19059;SDS011;9663;48.996;8.334;2023-06-14T04:12:40;4.25;;;2.10;;
19059;SDS011;9663;48.996;8.334;2023-06-14T04:15:07;4.10;;;2.00;;
19059;SDS011;9663;48.996;8.334;2023-06-14T04:17:34;3.75;;;1.85;;
19059;SDS011;9663;48.996;8.334;2023-06-14T04:20:03;3.92;;;1.77;;
19059;SDS011;9663;48.996;8.334;2023-06-14T04:22:34;3.50;;;1.75;;
19059;SDS011;9663;48.996;8.334;2023-06-14T04:25:01;3.70;;;1.60;;
19059;SDS011;9663;48.996;8.334;2023-06-14T04:27:30;4.93;;;1.90;;
19059;SDS011;9663;48.996;8.334;2023-06-14T04:29:59;4.03;;;1.80;;
19059;SDS011;9663;48.996;8.334;2023-06-14T04:32:28;4.13;;;2.03;;
19059;SDS011;9663;48.996;8.334;2023-06-14T04:35:03;3.90;;;1.83;;
19059;SDS011;9663;48.996;8.334;2023-06-14T04:37:32;4.47;;;2.10;;
19059;SDS011;9663;48.996;8.334;2023-06-14T04:39:58;4.05;;;2.00;;
19059;SDS011;9663;48.996;8.334;2023-06-14T04:42:24;3.95;;;1.77;;
19059;SDS011;9663;48.996;8.334;2023-06-14T04:44:55;4.65;;;2.17;;
19059;SDS011;9663;48.996;8.334;2023-06-14T04:47:22;4.70;;;2.17;;
19059;SDS011;9663;48.996;8.334;2023-06-14T04:49:49;4.68;;;2.08;;
19059;SDS011;9663;48.996;8.334;2023-06-14T04:52:18;4.60;;;2.10;;
19059;SDS011;9663;48.996;8.334;2023-06-14T04:54:46;5.13;;;2.35;;
19059;SDS011;9663;48.996;8.334;2023-06-14T04:57:12;4.43;;;2.30;;
19059;SDS011;9663;48.996;8.334;2023-06-14T04:59:42;8.05;;;2.60;;
19059;SDS011;9663;48.996;8.334;2023-06-14T05:02:11;4.80;;;2.40;;
19059;SDS011;9663;48.996;8.334;2023-06-14T05:04:37;5.18;;;2.33;;
19059;SDS011;9663;48.996;8.334;2023-06-14T05:07:06;4.13;;;2.35;;
19059;SDS011;9663;48.996;8.334;2023-06-14T05:09:33;4.85;;;2.70;;
19059;SDS011;9663;48.996;8.334;2023-06-14T05:11:59;5.47;;;2.22;;
19059;SDS011;9663;48.996;8.334;2023-06-14T05:14:25;4.47;;;2.22;;
19059;SDS011;9663;48.996;8.334;2023-06-14T05:16:51;5.95;;;2.38;;
19059;SDS011;9663;48.996;8.334;2023-06-14T05:19:20;4.70;;;2.35;;
19059;SDS011;9663;48.996;8.334;2023-06-14T05:21:46;7.40;;;2.42;;
19059;SDS011;9663;48.996;8.334;2023-06-14T05:24:12;3.92;;;2.20;;
19059;SDS011;9663;48.996;8.334;2023-06-14T05:26:39;4.50;;;2.40;;
19059;SDS011;9663;48.996;8.334;2023-06-14T05:29:05;5.68;;;2.50;;
19059;SDS011;9663;48.996;8.334;2023-06-14T05:31:31;4.68;;;2.70;;
19059;SDS011;9663;48.996;8.334;2023-06-14T05:33:57;4.35;;;2.17;;
19059;SDS011;9663;48.996;8.334;2023-06-14T05:36:23;4.97;;;2.35;;
19059;SDS011;9663;48.996;8.334;2023-06-14T05:38:50;4.80;;;2.13;;
19059;SDS011;9663;48.996;8.334;2023-06-14T05:41:22;4.65;;;2.22;;
19059;SDS011;9663;48.996;8.334;2023-06-14T05:43:53;4.60;;;2.08;;
19059;SDS011;9663;48.996;8.334;2023-06-14T05:46:20;4.63;;;2.10;;
19059;SDS011;9663;48.996;8.334;2023-06-14T05:48:49;6.65;;;2.80;;
19059;SDS011;9663;48.996;8.334;2023-06-14T05:51:16;4.82;;;2.40;;
19059;SDS011;9663;48.996;8.334;2023-06-14T05:53:43;4.47;;;2.08;;
19059;SDS011;9663;48.996;8.334;2023-06-14T05:56:13;4.63;;;1.77;;
19059;SDS011;9663;48.996;8.334;2023-06-14T05:58:40;4.72;;;2.40;;
19059;SDS011;9663;48.996;8.334;2023-06-14T06:01:06;4.10;;;2.30;;
19059;SDS011;9663;48.996;8.334;2023-06-14T06:03:31;4.32;;;2.08;;
19059;SDS011;9663;48.996;8.334;2023-06-14T06:05:57;4.47;;;1.98;;
19059;SDS011;9663;48.996;8.334;2023-06-14T06:08:23;5.15;;;2.33;;
19059;SDS011;9663;48.996;8.334;2023-06-14T06:10:49;5.40;;;2.25;;
19059;SDS011;9663;48.996;8.334;2023-06-14T06:13:15;4.78;;;2.08;;
19059;SDS011;9663;48.996;8.334;2023-06-14T06:15:41;4.88;;;1.90;;
19059;SDS011;9663;48.996;8.334;2023-06-14T06:18:08;4.80;;;2.15;;
19059;SDS011;9663;48.996;8.334;2023-06-14T06:20:34;3.97;;;1.92;;
19059;SDS011;9663;48.996;8.334;2023-06-14T06:23:01;4.15;;;2.42;;
19059;SDS011;9663;48.996;8.334;2023-06-14T06:25:27;4.93;;;2.20;;
19059;SDS011;9663;48.996;8.334;2023-06-14T06:27:54;3.97;;;1.83;;
19059;SDS011;9663;48.996;8.334;2023-06-14T06:30:23;4.80;;;2.10;;
19059;SDS011;9663;48.996;8.334;2023-06-14T06:32:49;5.00;;;2.13;;
19059;SDS011;9663;48.996;8.334;2023-06-14T06:35:15;4.75;;;1.85;;
19059;SDS011;9663;48.996;8.334;2023-06-14T06:37:42;4.05;;;2.05;;
19059;SDS011;9663;48.996;8.334;2023-06-14T06:40:08;3.78;;;1.73;;
19059;SDS011;9663;48.996;8.334;2023-06-14T06:42:34;5.72;;;2.35;;
19059;SDS011;9663;48.996;8.334;2023-06-14T06:45:00;4.70;;;2.22;;
19059;SDS011;9663;48.996;8.334;2023-06-14T06:47:26;5.03;;;2.50;;
19059;SDS011;9663;48.996;8.334;2023-06-14T06:49:52;4.13;;;2.10;;
19059;SDS011;9663;48.996;8.334;2023-06-14T06:52:18;4.80;;;2.35;;
19059;SDS011;9663;48.996;8.334;2023-06-14T06:54:43;4.03;;;2.08;;
19059;SDS011;9663;48.996;8.334;2023-06-14T06:57:09;4.32;;;1.98;;
19059;SDS011;9663;48.996;8.334;2023-06-14T06:59:35;4.57;;;1.80;;
19059;SDS011;9663;48.996;8.334;2023-06-14T07:02:01;4.90;;;2.10;;
19059;SDS011;9663;48.996;8.334;2023-06-14T07:04:28;4.55;;;2.22;;
19059;SDS011;9663;48.996;8.334;2023-06-14T07:06:53;4.53;;;1.85;;
19059;SDS011;9663;48.996;8.334;2023-06-14T07:09:19;4.25;;;2.20;;
19059;SDS011;9663;48.996;8.334;2023-06-14T07:11:46;3.95;;;2.17;;
19059;SDS011;9663;48.996;8.334;2023-06-14T07:14:12;4.72;;;2.10;;
19059;SDS011;9663;48.996;8.334;2023-06-14T07:16:38;4.53;;;2.28;;
19059;SDS011;9663;48.996;8.334;2023-06-14T07:19:04;3.95;;;1.95;;
19059;SDS011;9663;48.996;8.334;2023-06-14T07:21:30;3.70;;;1.77;;
19059;SDS011;9663;48.996;8.334;2023-06-14T07:23:56;4.03;;;2.05;;
19059;SDS011;9663;48.996;8.334;2023-06-14T07:26:22;4.05;;;1.80;;
19059;SDS011;9663;48.996;8.334;2023-06-14T07:28:48;4.82;;;2.05;;
19059;SDS011;9663;48.996;8.334;2023-06-14T07:31:17;4.80;;;2.00;;
19059;SDS011;9663;48.996;8.334;2023-06-14T07:33:44;4.28;;;1.90;;
19059;SDS011;9663;48.996;8.334;2023-06-14T07:36:10;4.72;;;1.88;;
19059;SDS011;9663;48.996;8.334;2023-06-14T07:38:36;5.22;;;2.00;;
19059;SDS011;9663;48.996;8.334;2023-06-14T07:41:02;4.43;;;2.33;;
19059;SDS011;9663;48.996;8.334;2023-06-14T07:43:28;4.25;;;1.92;;
19059;SDS011;9663;48.996;8.334;2023-06-14T07:45:54;4.32;;;2.15;;
19059;SDS011;9663;48.996;8.334;2023-06-14T07:48:20;5.68;;;2.05;;
19059;SDS011;9663;48.996;8.334;2023-06-14T07:50:45;3.90;;;1.67;;
19059;SDS011;9663;48.996;8.334;2023-06-14T07:53:11;4.30;;;1.90;;
19059;SDS011;9663;48.996;8.334;2023-06-14T07:55:37;5.55;;;2.05;;
19059;SDS011;9663;48.996;8.334;2023-06-14T07:58:03;4.20;;;2.10;;
19059;SDS011;9663;48.996;8.334;2023-06-14T08:00:30;3.72;;;1.88;;
19059;SDS011;9663;48.996;8.334;2023-06-14T08:02:55;4.20;;;2.15;;
19059;SDS011;9663;48.996;8.334;2023-06-14T08:05:24;4.13;;;1.83;;
19059;SDS011;9663;48.996;8.334;2023-06-14T08:07:50;4.97;;;1.95;;
19059;SDS011;9663;48.996;8.334;2023-06-14T08:10:16;4.18;;;2.03;;
19059;SDS011;9663;48.996;8.334;2023-06-14T08:12:43;3.85;;;1.98;;
19059;SDS011;9663;48.996;8.334;2023-06-14T08:15:09;3.88;;;1.88;;
19059;SDS011;9663;48.996;8.334;2023-06-14T08:17:35;3.90;;;2.08;;
19059;SDS011;9663;48.996;8.334;2023-06-14T08:20:01;4.32;;;2.10;;
19059;SDS011;9663;48.996;8.334;2023-06-14T08:22:29;3.80;;;1.88;;
19059;SDS011;9663;48.996;8.334;2023-06-14T08:24:58;5.13;;;1.90;;
19059;SDS011;9663;48.996;8.334;2023-06-14T08:27:26;4.30;;;1.90;;
19059;SDS011;9663;48.996;8.334;2023-06-14T08:29:52;4.18;;;1.98;;
19059;SDS011;9663;48.996;8.334;2023-06-14T08:32:18;3.97;;;1.95;;
19059;SDS011;9663;48.996;8.334;2023-06-14T08:34:43;4.07;;;2.20;;
19059;SDS011;9663;48.996;8.334;2023-06-14T08:37:09;4.30;;;1.92;;
19059;SDS011;9663;48.996;8.334;2023-06-14T08:39:35;4.30;;;2.17;;
19059;SDS011;9663;48.996;8.334;2023-06-14T08:42:02;4.80;;;2.03;;
19059;SDS011;9663;48.996;8.334;2023-06-14T08:44:30;4.15;;;2.10;;
19059;SDS011;9663;48.996;8.334;2023-06-14T08:46:56;4.10;;;2.08;;
19059;SDS011;9663;48.996;8.334;2023-06-14T08:49:24;3.80;;;1.77;;
19059;SDS011;9663;48.996;8.334;2023-06-14T08:51:53;3.55;;;1.85;;
19059;SDS011;9663;48.996;8.334;2023-06-14T08:54:25;5.78;;;1.90;;
19059;SDS011;9663;48.996;8.334;2023-06-14T08:56:58;4.30;;;1.88;;
19059;SDS011;9663;48.996;8.334;2023-06-14T08:59:25;3.78;;;1.55;;
19059;SDS011;9663;48.996;8.334;2023-06-14T09:01:52;4.10;;;2.00;;
19059;SDS011;9663;48.996;8.334;2023-06-14T09:04:20;5.95;;;2.00;;
19059;SDS011;9663;48.996;8.334;2023-06-14T09:06:55;3.53;;;1.55;;
19059;SDS011;9663;48.996;8.334;2023-06-14T09:09:21;3.58;;;1.67;;
19059;SDS011;9663;48.996;8.334;2023-06-14T09:11:53;4.18;;;1.92;;
19059;SDS011;9663;48.996;8.334;2023-06-14T09:14:20;6.65;;;2.40;;
19059;SDS011;9663;48.996;8.334;2023-06-14T09:16:51;4.40;;;2.00;;
19059;SDS011;9663;48.996;8.334;2023-06-14T09:19:22;3.90;;;1.70;;
19059;SDS011;9663;48.996;8.334;2023-06-14T09:21:49;3.60;;;1.55;;
19059;SDS011;9663;48.996;8.334;2023-06-14T09:24:17;5.57;;;1.98;;
19059;SDS011;9663;48.996;8.334;2023-06-14T09:26:46;3.50;;;1.50;;
19059;SDS011;9663;48.996;8.334;2023-06-14T09:29:12;4.78;;;1.98;;
19059;SDS011;9663;48.996;8.334;2023-06-14T09:31:38;4.03;;;1.70;;
19059;SDS011;9663;48.996;8.334;2023-06-14T09:34:04;4.78;;;1.95;;
19059;SDS011;9663;48.996;8.334;2023-06-14T09:36:31;3.65;;;1.80;;
19059;SDS011;9663;48.996;8.334;2023-06-14T09:41:32;4.30;;;2.15;;
19059;SDS011;9663;48.996;8.334;2023-06-14T09:44:00;4.22;;;2.08;;
19059;SDS011;9663;48.996;8.334;2023-06-14T09:46:31;4.43;;;1.90;;
19059;SDS011;9663;48.996;8.334;2023-06-14T09:48:58;3.70;;;1.88;;
19059;SDS011;9663;48.996;8.334;2023-06-14T09:51:25;4.47;;;1.75;;
19059;SDS011;9663;48.996;8.334;2023-06-14T09:53:55;4.07;;;1.90;;
19059;SDS011;9663;48.996;8.334;2023-06-14T09:56:30;3.95;;;1.90;;
19059;SDS011;9663;48.996;8.334;2023-06-14T09:59:06;3.90;;;1.80;;
19059;SDS011;9663;48.996;8.334;2023-06-14T10:01:40;6.53;;;2.08;;
19059;SDS011;9663;48.996;8.334;2023-06-14T10:04:08;4.45;;;1.60;;
19059;SDS011;9663;48.996;8.334;2023-06-14T10:06:42;3.22;;;1.65;;
19059;SDS011;9663;48.996;8.334;2023-06-14T10:09:11;3.90;;;1.67;;
19059;SDS011;9663;48.996;8.334;2023-06-14T10:11:37;4.40;;;2.22;;
19059;SDS011;9663;48.996;8.334;2023-06-14T10:14:10;5.38;;;1.63;;
19059;SDS011;9663;48.996;8.334;2023-06-14T10:19:20;4.22;;;1.92;;
19059;SDS011;9663;48.996;8.334;2023-06-14T10:22:16;5.43;;;1.70;;
19059;SDS011;9663;48.996;8.334;2023-06-14T10:25:12;3.92;;;1.50;;
19059;SDS011;9663;48.996;8.334;2023-06-14T10:27:50;4.55;;;1.50;;
19059;SDS011;9663;48.996;8.334;2023-06-14T10:30:16;4.38;;;1.70;;
19059;SDS011;9663;48.996;8.334;2023-06-14T10:33:03;4.35;;;1.67;;
19059;SDS011;9663;48.996;8.334;2023-06-14T10:35:30;4.00;;;1.80;;
19059;SDS011;9663;48.996;8.334;2023-06-14T10:38:05;3.53;;;1.45;;
19059;SDS011;9663;48.996;8.334;2023-06-14T10:40:33;4.03;;;1.80;;
19059;SDS011;9663;48.996;8.334;2023-06-14T10:42:59;3.60;;;1.60;;
19059;SDS011;9663;48.996;8.334;2023-06-14T10:45:25;3.70;;;1.60;;
19059;SDS011;9663;48.996;8.334;2023-06-14T10:47:50;3.80;;;1.55;;
19059;SDS011;9663;48.996;8.334;2023-06-14T10:50:22;4.82;;;1.60;;
19059;SDS011;9663;48.996;8.334;2023-06-14T10:52:58;3.92;;;1.80;;
19059;SDS011;9663;48.996;8.334;2023-06-14T10:55:24;3.47;;;1.65;;
19059;SDS011;9663;48.996;8.334;2023-06-14T10:57:53;3.70;;;1.90;;
19059;SDS011;9663;48.996;8.334;2023-06-14T11:00:24;3.60;;;1.70;;
19059;SDS011;9663;48.996;8.334;2023-06-14T11:05:56;3.75;;;1.63;;
19059;SDS011;9663;48.996;8.334;2023-06-14T11:10:59;3.38;;;1.63;;
19059;SDS011;9663;48.996;8.334;2023-06-14T11:13:30;4.35;;;1.83;;
19059;SDS011;9663;48.996;8.334;2023-06-14T11:15:56;3.40;;;1.63;;
19059;SDS011;9663;48.996;8.334;2023-06-14T11:18:23;4.97;;;1.92;;
19059;SDS011;9663;48.996;8.334;2023-06-14T11:20:50;3.55;;;1.70;;
19059;SDS011;9663;48.996;8.334;2023-06-14T11:23:15;3.50;;;1.70;;
19059;SDS011;9663;48.996;8.334;2023-06-14T11:25:41;4.20;;;1.85;;
19059;SDS011;9663;48.996;8.334;2023-06-14T11:28:07;5.28;;;1.70;;
19059;SDS011;9663;48.996;8.334;2023-06-14T11:30:33;4.43;;;1.80;;
19059;SDS011;9663;48.996;8.334;2023-06-14T11:32:59;3.22;;;1.60;;
19059;SDS011;9663;48.996;8.334;2023-06-14T11:35:25;4.05;;;1.58;;
19059;SDS011;9663;48.996;8.334;2023-06-14T11:37:55;4.00;;;2.00;;
19059;SDS011;9663;48.996;8.334;2023-06-14T11:40:23;3.13;;;1.50;;
19059;SDS011;9663;48.996;8.334;2023-06-14T11:42:57;3.90;;;1.75;;
19059;SDS011;9663;48.996;8.334;2023-06-14T11:45:25;3.47;;;1.73;;
19059;SDS011;9663;48.996;8.334;2023-06-14T11:47:53;3.90;;;1.90;;
19059;SDS011;9663;48.996;8.334;2023-06-14T11:50:23;3.92;;;1.70;;
19059;SDS011;9663;48.996;8.334;2023-06-14T11:52:57;3.75;;;1.90;;
19059;SDS011;9663;48.996;8.334;2023-06-14T11:55:28;4.32;;;1.80;;
19059;SDS011;9663;48.996;8.334;2023-06-14T11:57:54;4.80;;;1.90;;
19059;SDS011;9663;48.996;8.334;2023-06-14T12:00:24;3.58;;;1.83;;
19059;SDS011;9663;48.996;8.334;2023-06-14T12:02:54;3.58;;;1.70;;
19059;SDS011;9663;48.996;8.334;2023-06-14T12:05:21;3.95;;;2.00;;
19059;SDS011;9663;48.996;8.334;2023-06-14T12:07:48;3.70;;;1.80;;
19059;SDS011;9663;48.996;8.334;2023-06-14T12:10:15;3.33;;;1.65;;
19059;SDS011;9663;48.996;8.334;2023-06-14T12:12:42;3.95;;;1.88;;
19059;SDS011;9663;48.996;8.334;2023-06-14T12:15:08;3.65;;;1.67;;
19059;SDS011;9663;48.996;8.334;2023-06-14T12:17:37;3.67;;;1.60;;
19059;SDS011;9663;48.996;8.334;2023-06-14T12:20:10;3.47;;;1.60;;
19059;SDS011;9663;48.996;8.334;2023-06-14T12:22:39;3.72;;;1.80;;
19059;SDS011;9663;48.996;8.334;2023-06-14T12:27:59;4.10;;;1.58;;
19059;SDS011;9663;48.996;8.334;2023-06-14T12:30:35;3.10;;;1.50;;
19059;SDS011;9663;48.996;8.334;2023-06-14T12:33:02;3.42;;;1.58;;
19059;SDS011;9663;48.996;8.334;2023-06-14T12:35:29;3.47;;;1.77;;
19059;SDS011;9663;48.996;8.334;2023-06-14T12:37:55;3.65;;;1.73;;
19059;SDS011;9663;48.996;8.334;2023-06-14T12:40:21;3.03;;;1.50;;
19059;SDS011;9663;48.996;8.334;2023-06-14T12:42:47;3.30;;;1.50;;
19059;SDS011;9663;48.996;8.334;2023-06-14T12:45:13;3.53;;;1.52;;
19059;SDS011;9663;48.996;8.334;2023-06-14T12:47:39;4.38;;;1.70;;
19059;SDS011;9663;48.996;8.334;2023-06-14T12:50:05;3.63;;;1.63;;
19059;SDS011;9663;48.996;8.334;2023-06-14T12:52:32;3.65;;;1.73;;
19059;SDS011;9663;48.996;8.334;2023-06-14T12:55:04;3.30;;;1.60;;
19059;SDS011;9663;48.996;8.334;2023-06-14T12:57:30;4.15;;;2.30;;
19059;SDS011;9663;48.996;8.334;2023-06-14T12:59:56;4.03;;;1.85;;
19059;SDS011;9663;48.996;8.334;2023-06-14T13:02:22;4.18;;;1.58;;
19059;SDS011;9663;48.996;8.334;2023-06-14T13:04:49;3.70;;;1.80;;
19059;SDS011;9663;48.996;8.334;2023-06-14T13:07:15;3.97;;;1.77;;
19059;SDS011;9663;48.996;8.334;2023-06-14T13:09:41;3.50;;;1.48;;
19059;SDS011;9663;48.996;8.334;2023-06-14T13:12:09;3.13;;;1.55;;
19059;SDS011;9663;48.996;8.334;2023-06-14T13:14:39;3.22;;;1.70;;
19059;SDS011;9663;48.996;8.334;2023-06-14T13:17:07;2.97;;;1.40;;
19059;SDS011;9663;48.996;8.334;2023-06-14T13:19:34;2.83;;;1.35;;
19059;SDS011;9663;48.996;8.334;2023-06-14T13:22:00;3.20;;;1.60;;
19059;SDS011;9663;48.996;8.334;2023-06-14T13:24:26;3.08;;;1.42;;
19059;SDS011;9663;48.996;8.334;2023-06-14T13:26:54;3.55;;;1.58;;
19059;SDS011;9663;48.996;8.334;2023-06-14T13:29:21;3.92;;;1.60;;
19059;SDS011;9663;48.996;8.334;2023-06-14T13:31:48;3.63;;;1.52;;
19059;SDS011;9663;48.996;8.334;2023-06-14T13:34:13;3.20;;;1.50;;
19059;SDS011;9663;48.996;8.334;2023-06-14T13:36:39;4.65;;;2.30;;
19059;SDS011;9663;48.996;8.334;2023-06-14T13:50:09;3.25;;;1.48;;
19059;SDS011;9663;48.996;8.334;2023-06-14T13:52:35;3.10;;;1.45;;
19059;SDS011;9663;48.996;8.334;2023-06-14T13:55:00;3.70;;;1.67;;
19059;SDS011;9663;48.996;8.334;2023-06-14T13:57:27;3.50;;;1.60;;
19059;SDS011;9663;48.996;8.334;2023-06-14T13:59:53;3.85;;;1.85;;
19059;SDS011;9663;48.996;8.334;2023-06-14T14:02:20;3.58;;;1.45;;
19059;SDS011;9663;48.996;8.334;2023-06-14T14:04:46;3.72;;;1.50;;
19059;SDS011;9663;48.996;8.334;2023-06-14T14:07:17;3.30;;;1.60;;
19059;SDS011;9663;48.996;8.334;2023-06-14T14:09:44;3.67;;;1.90;;
19059;SDS011;9663;48.996;8.334;2023-06-14T14:12:10;3.95;;;1.65;;
19059;SDS011;9663;48.996;8.334;2023-06-14T14:14:36;3.45;;;1.70;;
19059;SDS011;9663;48.996;8.334;2023-06-14T14:17:02;3.00;;;1.38;;
19059;SDS011;9663;48.996;8.334;2023-06-14T14:19:28;3.50;;;1.42;;
19059;SDS011;9663;48.996;8.334;2023-06-14T14:21:54;4.73;;;2.00;;
19059;SDS011;9663;48.996;8.334;2023-06-14T14:24:20;3.92;;;1.80;;
19059;SDS011;9663;48.996;8.334;2023-06-14T14:26:45;3.60;;;1.67;;
19059;SDS011;9663;48.996;8.334;2023-06-14T14:29:13;4.13;;;1.90;;
19059;SDS011;9663;48.996;8.334;2023-06-14T14:31:39;3.47;;;1.73;;
19059;SDS011;9663;48.996;8.334;2023-06-14T14:34:05;3.60;;;1.63;;
19059;SDS011;9663;48.996;8.334;2023-06-14T14:36:31;3.40;;;1.75;;
19059;SDS011;9663;48.996;8.334;2023-06-14T14:38:58;3.63;;;1.83;;
19059;SDS011;9663;48.996;8.334;2023-06-14T14:41:24;2.90;;;1.35;;
19059;SDS011;9663;48.996;8.334;2023-06-14T14:43:50;3.00;;;1.35;;
19059;SDS011;9663;48.996;8.334;2023-06-14T14:46:15;4.25;;;1.90;;
19059;SDS011;9663;48.996;8.334;2023-06-14T14:48:41;3.28;;;1.42;;
19059;SDS011;9663;48.996;8.334;2023-06-14T14:51:07;3.15;;;1.35;;
19059;SDS011;9663;48.996;8.334;2023-06-14T14:53:33;3.30;;;1.60;;
19059;SDS011;9663;48.996;8.334;2023-06-14T14:55:58;3.00;;;1.50;;
19059;SDS011;9663;48.996;8.334;2023-06-14T14:58:25;3.20;;;1.50;;
19059;SDS011;9663;48.996;8.334;2023-06-14T15:00:50;3.03;;;1.40;;
19059;SDS011;9663;48.996;8.334;2023-06-14T15:03:16;3.17;;;1.48;;
19059;SDS011;9663;48.996;8.334;2023-06-14T15:05:42;3.55;;;1.75;;
19059;SDS011;9663;48.996;8.334;2023-06-14T15:08:07;3.08;;;1.40;;
19059;SDS011;9663;48.996;8.334;2023-06-14T15:10:37;2.95;;;1.50;;
19059;SDS011;9663;48.996;8.334;2023-06-14T15:13:06;6.85;;;1.73;;
19059;SDS011;9663;48.996;8.334;2023-06-14T15:15:35;3.63;;;1.70;;
19059;SDS011;9663;48.996;8.334;2023-06-14T15:18:02;3.72;;;1.65;;
19059;SDS011;9663;48.996;8.334;2023-06-14T15:20:28;2.85;;;1.50;;
19059;SDS011;9663;48.996;8.334;2023-06-14T15:22:54;4.57;;;1.80;;
19059;SDS011;9663;48.996;8.334;2023-06-14T15:25:26;3.63;;;1.60;;
19059;SDS011;9663;48.996;8.334;2023-06-14T15:27:53;3.75;;;1.88;;